createdAt,value
2019-03-27T00:00:41.957Z,-0.06
2019-03-27T00:02:48.789Z,-0.08
2019-03-27T00:04:54.468Z,-0.12
2019-03-27T00:07:00.126Z,-0.16
2019-03-27T00:09:06.371Z,-0.20
2019-03-27T00:11:12.160Z,-0.14
2019-03-27T00:13:17.812Z,-0.19
2019-03-27T00:15:23.468Z,-0.25
2019-03-27T00:17:29.157Z,-0.22
2019-03-27T00:19:34.879Z,-0.27
2019-03-27T00:21:41.142Z,-0.31
2019-03-27T00:23:46.824Z,-0.30
2019-03-27T00:25:52.472Z,-0.31
2019-03-27T00:27:58.130Z,-0.29
2019-03-27T00:30:05.255Z,-0.32
2019-03-27T00:32:10.911Z,-0.34
2019-03-27T00:34:16.561Z,-0.40
2019-03-27T00:36:22.243Z,-0.44
2019-03-27T00:38:27.897Z,-0.49
2019-03-27T00:40:33.548Z,-0.50
2019-03-27T00:42:39.219Z,-0.51
2019-03-27T00:44:44.885Z,-0.52
2019-03-27T00:46:50.477Z,-0.56
2019-03-27T00:48:56.151Z,-0.57
2019-03-27T00:51:01.801Z,-0.61
2019-03-27T00:53:07.456Z,-0.61
2019-03-27T00:55:14.035Z,-0.63
2019-03-27T00:57:19.758Z,-0.65
2019-03-27T00:59:25.416Z,-0.70
2019-03-27T01:01:31.093Z,-0.68
2019-03-27T01:03:36.753Z,-0.73
2019-03-27T01:05:42.400Z,-0.77
2019-03-27T01:07:48.075Z,-0.80
2019-03-27T01:09:53.660Z,-0.80
2019-03-27T01:11:59.647Z,-0.82
2019-03-27T01:14:05.323Z,-0.85
2019-03-27T01:16:10.992Z,-0.87
2019-03-27T01:18:16.657Z,-0.86
2019-03-27T01:20:22.335Z,-0.88
2019-03-27T01:22:27.988Z,-0.90
2019-03-27T01:24:33.652Z,-0.92
2019-03-27T01:26:39.405Z,-0.91
2019-03-27T01:28:45.064Z,-0.93
2019-03-27T01:30:50.717Z,-0.97
2019-03-27T01:32:56.404Z,-0.99
2019-03-27T01:35:02.061Z,-1.03
2019-03-27T01:37:08.810Z,-1.04
2019-03-27T01:39:14.491Z,-1.02
2019-03-27T01:41:20.234Z,-1.03
2019-03-27T01:43:25.892Z,-1.07
2019-03-27T01:45:31.647Z,-1.10
2019-03-27T01:47:37.311Z,-1.12
2019-03-27T01:49:42.956Z,-1.13
2019-03-27T01:51:48.641Z,-1.13
2019-03-27T01:53:54.302Z,-1.14
2019-03-27T01:55:59.957Z,-1.18
2019-03-27T01:58:05.645Z,-1.21
2019-03-27T02:00:11.697Z,-1.25
2019-03-27T02:02:17.419Z,-1.27
2019-03-27T02:04:23.101Z,-1.26
2019-03-27T02:06:28.820Z,-1.29
2019-03-27T02:08:34.502Z,-1.32
2019-03-27T02:10:40.172Z,-1.34
2019-03-27T02:12:45.826Z,-1.37
2019-03-27T02:14:52.585Z,-1.38
2019-03-27T02:16:58.272Z,-1.42
2019-03-27T02:19:03.922Z,-1.42
2019-03-27T02:21:09.875Z,-1.47
2019-03-27T02:23:15.682Z,-1.50
2019-03-27T02:25:21.404Z,-1.49
2019-03-27T02:27:27.056Z,-1.50
2019-03-27T02:29:32.727Z,-1.52
2019-03-27T02:31:38.380Z,-1.54
2019-03-27T02:33:44.061Z,-1.61
2019-03-27T02:35:49.736Z,-1.63
2019-03-27T02:37:55.392Z,-1.68
2019-03-27T02:40:01.143Z,-1.72
2019-03-27T02:42:07.239Z,-1.77
2019-03-27T02:44:12.886Z,-1.83
2019-03-27T02:46:24.977Z,-1.83
2019-03-27T02:48:25.916Z,-1.84
2019-03-27T02:50:31.580Z,-1.86
2019-03-27T02:52:37.227Z,-1.90
2019-03-27T02:54:42.901Z,-1.94
2019-03-27T02:56:48.553Z,-1.96
2019-03-27T02:58:54.206Z,-1.96
2019-03-27T03:01:00.594Z,-1.96
2019-03-27T03:03:07.891Z,-1.98
2019-03-27T03:05:13.723Z,-2.03
2019-03-27T03:07:19.396Z,-2.06
2019-03-27T03:09:25.082Z,-2.09
2019-03-27T03:11:30.735Z,-2.10
2019-03-27T03:13:36.513Z,-2.11
2019-03-27T03:15:42.240Z,-2.14
2019-03-27T03:17:48.001Z,-2.16
2019-03-27T03:19:53.666Z,-2.18
2019-03-27T03:21:59.321Z,-2.18
2019-03-27T03:24:04.965Z,-2.14
2019-03-27T03:26:10.651Z,-2.12
2019-03-27T03:28:16.297Z,-2.15
2019-03-27T03:30:21.960Z,-2.16
2019-03-27T03:32:27.647Z,-2.17
2019-03-27T03:34:34.583Z,-2.14
2019-03-27T03:36:40.385Z,-2.14
2019-03-27T03:38:46.065Z,-2.17
2019-03-27T03:40:51.707Z,-2.17
2019-03-27T03:42:57.363Z,-2.12
2019-03-27T03:45:03.154Z,-2.05
2019-03-27T03:47:08.812Z,-1.98
2019-03-27T03:49:14.460Z,-1.93
2019-03-27T03:51:20.244Z,-1.91
2019-03-27T03:53:26.309Z,-1.89
2019-03-27T03:55:33.854Z,-1.84
2019-03-27T03:57:39.652Z,-1.80
2019-03-27T03:59:46.107Z,-1.79
2019-03-27T04:01:56.090Z,-1.78
2019-03-27T04:04:03.475Z,-1.76
2019-03-27T04:06:09.125Z,-1.77
2019-03-27T04:08:14.786Z,-1.77
2019-03-27T04:10:20.483Z,-1.82
2019-03-27T04:12:26.144Z,-1.87
2019-03-27T04:14:31.796Z,-1.87
2019-03-27T04:16:37.469Z,-1.89
2019-03-27T04:18:43.125Z,-1.89
2019-03-27T04:20:48.831Z,-1.90
2019-03-27T04:22:54.584Z,-1.91
2019-03-27T04:25:00.548Z,-1.92
2019-03-27T04:27:06.282Z,-1.92
2019-03-27T04:29:11.942Z,-1.92
2019-03-27T04:31:17.600Z,-1.92
2019-03-27T04:33:23.195Z,-1.91
2019-03-27T04:35:28.873Z,-1.91
2019-03-27T04:37:34.572Z,-1.91
2019-03-27T04:39:40.211Z,-1.92
2019-03-27T04:41:45.909Z,-1.89
2019-03-27T04:43:51.562Z,-1.85
2019-03-27T04:45:57.219Z,-1.80
2019-03-27T04:48:02.961Z,-1.74
2019-03-27T04:50:08.684Z,-1.70
2019-03-27T04:52:14.338Z,-1.63
2019-03-27T04:54:20.010Z,-1.56
2019-03-27T04:56:25.667Z,-1.48
2019-03-27T04:58:31.314Z,-1.37
2019-03-27T05:00:37.221Z,-1.24
2019-03-27T05:02:42.881Z,-1.05
2019-03-27T05:04:48.843Z,-0.91
2019-03-27T05:06:54.556Z,-0.70
2019-03-27T05:09:00.235Z,-0.53
2019-03-27T05:11:05.952Z,-0.34
2019-03-27T05:13:11.631Z,-0.12
2019-03-27T05:15:17.421Z,-0.01
2019-03-27T05:17:23.071Z,0.15
2019-03-27T05:19:28.812Z,0.38
2019-03-27T05:21:34.460Z,0.57
2019-03-27T05:23:40.107Z,1.39
2019-03-27T05:25:46.881Z,2.70
2019-03-27T05:27:52.551Z,4.45
2019-03-27T05:29:58.179Z,6.15
2019-03-27T05:32:03.849Z,7.97
2019-03-27T05:34:10.695Z,8.41
2019-03-27T05:36:16.440Z,9.21
2019-03-27T05:38:22.111Z,9.85
2019-03-27T05:40:27.780Z,9.43
2019-03-27T05:42:33.433Z,10.29
2019-03-27T05:44:39.120Z,10.22
2019-03-27T05:46:44.847Z,10.38
2019-03-27T05:48:50.500Z,9.65
2019-03-27T05:50:56.176Z,8.94
2019-03-27T05:53:01.827Z,7.46
2019-03-27T05:55:07.773Z,9.05
2019-03-27T05:57:13.457Z,8.45
2019-03-27T05:59:19.175Z,8.24
2019-03-27T06:01:24.892Z,8.47
2019-03-27T06:03:30.569Z,7.50
2019-03-27T06:05:37.213Z,8.29
2019-03-27T06:07:42.804Z,8.58
2019-03-27T06:09:48.480Z,8.78
2019-03-27T06:11:54.124Z,9.05
2019-03-27T06:13:59.778Z,7.59
2019-03-27T06:16:05.453Z,6.64
2019-03-27T06:18:13.189Z,5.37
2019-03-27T06:20:18.447Z,5.45
2019-03-27T06:22:24.123Z,4.82
2019-03-27T06:24:29.786Z,5.24
2019-03-27T06:26:35.432Z,4.75
2019-03-27T06:28:41.107Z,4.89
2019-03-27T06:30:47.751Z,4.80
2019-03-27T06:32:53.383Z,4.21
2019-03-27T06:34:59.065Z,3.84
2019-03-27T06:37:04.714Z,3.97
2019-03-27T06:39:10.379Z,4.08
2019-03-27T06:41:17.141Z,4.97
2019-03-27T06:43:22.810Z,4.42
2019-03-27T06:45:28.448Z,4.20
2019-03-27T06:47:34.432Z,4.01
2019-03-27T06:49:40.082Z,6.43
2019-03-27T06:51:45.727Z,7.12
2019-03-27T06:53:51.395Z,7.95
2019-03-27T06:55:57.035Z,7.94
2019-03-27T06:58:02.751Z,7.78
2019-03-27T07:00:10.277Z,8.75
2019-03-27T07:02:16.081Z,9.33
2019-03-27T07:04:21.670Z,8.92
2019-03-27T07:06:27.353Z,9.71
2019-03-27T07:08:33.013Z,13.14
2019-03-27T07:10:38.670Z,13.73
2019-03-27T07:12:44.355Z,17.07
2019-03-27T07:14:50.013Z,19.01
2019-03-27T07:16:55.666Z,20.86
2019-03-27T07:19:01.349Z,22.07
2019-03-27T07:21:07.010Z,22.54
2019-03-27T07:23:12.784Z,22.82
2019-03-27T07:25:18.393Z,21.79
2019-03-27T07:27:24.046Z,17.97
2019-03-27T07:29:29.698Z,14.55
2019-03-27T07:31:35.380Z,13.19
2019-03-27T07:33:41.037Z,11.69
2019-03-27T07:35:46.684Z,10.52
2019-03-27T07:37:53.351Z,9.32
2019-03-27T07:39:58.997Z,8.14
2019-03-27T07:42:04.744Z,7.26
2019-03-27T07:44:10.411Z,7.03
2019-03-27T07:46:16.057Z,7.25
2019-03-27T07:48:21.700Z,7.76
2019-03-27T07:50:27.373Z,8.16
2019-03-27T07:52:33.019Z,8.47
2019-03-27T07:54:38.667Z,8.64
2019-03-27T07:56:44.335Z,8.82
2019-03-27T07:58:49.988Z,8.11
2019-03-27T08:00:55.627Z,8.23
2019-03-27T08:03:01.296Z,7.88
2019-03-27T08:05:07.240Z,7.64
2019-03-27T08:07:25.927Z,7.73
2019-03-27T08:09:23.004Z,7.40
2019-03-27T08:11:27.836Z,7.11
2019-03-27T08:13:33.571Z,7.43
2019-03-27T08:15:40.832Z,7.23
2019-03-27T08:17:46.774Z,6.89
2019-03-27T08:19:52.420Z,7.30
2019-03-27T08:21:58.156Z,7.40
2019-03-27T08:24:03.855Z,7.25
2019-03-27T08:26:10.459Z,6.89
2019-03-27T08:28:16.131Z,6.77
2019-03-27T08:30:22.379Z,6.45
2019-03-27T08:32:28.072Z,6.67
2019-03-27T08:34:33.744Z,7.04
2019-03-27T08:36:39.405Z,7.15
2019-03-27T08:38:45.043Z,6.98
2019-03-27T08:40:50.758Z,6.65
2019-03-27T08:42:56.453Z,6.60
2019-03-27T08:45:02.107Z,6.55
2019-03-27T08:47:07.786Z,6.67
2019-03-27T08:49:21.935Z,6.88
2019-03-27T08:51:20.776Z,7.24
2019-03-27T08:53:26.461Z,7.38
2019-03-27T08:55:32.309Z,7.02
2019-03-27T08:57:37.989Z,6.77
2019-03-27T08:59:43.662Z,6.58
2019-03-27T09:01:49.306Z,6.57
2019-03-27T09:03:54.954Z,6.65
2019-03-27T09:06:00.562Z,6.87
2019-03-27T09:08:06.290Z,7.23
2019-03-27T09:10:12.868Z,7.33
2019-03-27T09:12:18.548Z,7.22
2019-03-27T09:14:24.277Z,7.20
2019-03-27T09:16:29.955Z,7.16
2019-03-27T09:18:35.623Z,7.44
2019-03-27T09:20:41.276Z,7.45
2019-03-27T09:22:46.886Z,7.26
2019-03-27T09:24:52.590Z,7.42
2019-03-27T09:26:58.266Z,7.40
2019-03-27T09:29:03.941Z,6.88
2019-03-27T09:31:09.644Z,6.85
2019-03-27T09:33:15.386Z,6.81
2019-03-27T09:35:21.187Z,6.98
2019-03-27T09:37:26.984Z,7.00
2019-03-27T09:39:32.665Z,7.07
2019-03-27T09:41:38.333Z,6.83
2019-03-27T09:43:44.044Z,6.87
2019-03-27T09:45:49.706Z,6.96
2019-03-27T09:47:55.524Z,6.95
2019-03-27T09:50:01.229Z,7.08
2019-03-27T09:52:07.008Z,7.08
2019-03-27T09:54:12.687Z,7.09
2019-03-27T09:56:19.663Z,7.13
2019-03-27T09:58:25.480Z,7.16
2019-03-27T10:00:46.091Z,7.11
2019-03-27T10:02:51.896Z,7.08
2019-03-27T10:04:57.564Z,7.05
2019-03-27T10:07:03.225Z,6.90
2019-03-27T10:09:09.135Z,7.02
2019-03-27T10:11:14.812Z,7.03
2019-03-27T10:13:20.465Z,7.19
2019-03-27T10:15:26.244Z,7.42
2019-03-27T10:17:31.914Z,7.74
2019-03-27T10:19:37.583Z,7.96
2019-03-27T10:21:43.287Z,8.09
2019-03-27T10:23:48.963Z,7.94
2019-03-27T10:25:54.629Z,7.97
2019-03-27T10:28:00.337Z,8.13
2019-03-27T10:30:10.221Z,8.18
2019-03-27T10:32:16.185Z,8.23
2019-03-27T10:34:21.883Z,8.39
2019-03-27T10:36:27.553Z,8.57
2019-03-27T10:38:33.231Z,8.54
2019-03-27T10:40:39.057Z,8.63
2019-03-27T10:42:44.727Z,8.96
2019-03-27T10:44:50.402Z,9.10
2019-03-27T10:46:56.140Z,8.98
2019-03-27T10:49:01.810Z,8.94
2019-03-27T10:51:07.591Z,9.16
2019-03-27T10:53:13.389Z,9.44
2019-03-27T10:55:19.066Z,9.44
2019-03-27T10:57:24.738Z,9.49
2019-03-27T10:59:30.446Z,9.61
2019-03-27T11:01:36.117Z,9.53
2019-03-27T11:03:41.807Z,9.46
2019-03-27T11:05:47.497Z,9.16
2019-03-27T11:07:53.176Z,8.75
2019-03-27T11:09:58.951Z,8.43
2019-03-27T11:12:04.655Z,8.29
2019-03-27T11:14:10.329Z,8.33
2019-03-27T11:16:16.193Z,8.40
2019-03-27T11:18:21.969Z,8.74
2019-03-27T11:20:31.145Z,8.70
2019-03-27T11:22:36.728Z,8.71
2019-03-27T11:24:42.509Z,8.92
2019-03-27T11:26:48.169Z,9.06
2019-03-27T11:28:53.838Z,9.33
2019-03-27T11:30:59.541Z,9.30
2019-03-27T11:33:06.020Z,9.76
2019-03-27T11:35:12.993Z,9.92
2019-03-27T11:37:19.802Z,9.89
2019-03-27T11:39:25.468Z,9.83
2019-03-27T11:41:31.142Z,9.64
2019-03-27T11:43:36.846Z,9.73
2019-03-27T11:45:42.524Z,9.69
2019-03-27T11:47:48.198Z,9.75
2019-03-27T11:49:54.720Z,9.65
2019-03-27T11:52:00.588Z,9.56
2019-03-27T11:54:06.275Z,9.53
2019-03-27T11:56:12.178Z,9.56
2019-03-27T11:58:17.852Z,9.53
2019-03-27T12:00:25.050Z,9.29
2019-03-27T12:02:30.858Z,8.85
2019-03-27T12:04:36.543Z,8.98
2019-03-27T12:06:42.216Z,9.25
2019-03-27T12:08:50.651Z,9.52
2019-03-27T12:10:55.300Z,9.64
2019-03-27T12:13:00.971Z,9.67
2019-03-27T12:15:07.875Z,9.63
2019-03-27T12:17:13.625Z,9.31
2019-03-27T12:19:19.290Z,9.20
2019-03-27T12:21:25.002Z,9.00
2019-03-27T12:23:30.662Z,8.84
2019-03-27T12:25:36.514Z,8.85
2019-03-27T12:27:42.212Z,8.89
2019-03-27T12:29:47.877Z,8.90
2019-03-27T12:31:53.554Z,8.81
2019-03-27T12:33:59.251Z,8.83
2019-03-27T12:36:04.922Z,8.95
2019-03-27T12:38:10.598Z,9.17
2019-03-27T12:40:16.298Z,9.33
2019-03-27T12:42:21.967Z,9.15
2019-03-27T12:44:27.640Z,9.26
2019-03-27T12:46:33.348Z,9.46
2019-03-27T12:48:39.010Z,9.47
2019-03-27T12:50:44.753Z,9.37
2019-03-27T12:52:50.555Z,9.56
2019-03-27T12:54:56.228Z,9.83
2019-03-27T12:57:03.073Z,9.97
2019-03-27T12:59:08.775Z,9.87
2019-03-27T13:01:14.446Z,10.09
2019-03-27T13:03:20.128Z,10.37
2019-03-27T13:05:25.849Z,10.20
2019-03-27T13:07:31.534Z,10.10
2019-03-27T13:09:37.214Z,10.02
2019-03-27T13:11:42.917Z,9.82
2019-03-27T13:13:48.588Z,9.52
2019-03-27T13:15:54.254Z,9.35
2019-03-27T13:17:59.961Z,9.32
2019-03-27T13:20:07.233Z,9.30
2019-03-27T13:22:12.911Z,9.50
2019-03-27T13:24:18.718Z,9.61
2019-03-27T13:26:24.456Z,9.71
2019-03-27T13:28:30.130Z,9.50
2019-03-27T13:30:35.843Z,9.59
2019-03-27T13:32:41.516Z,9.61
2019-03-27T13:34:47.188Z,9.51
2019-03-27T13:36:53.885Z,9.48
2019-03-27T13:39:00.577Z,9.57
2019-03-27T13:41:07.778Z,9.69
2019-03-27T13:43:13.489Z,9.67
2019-03-27T13:45:19.563Z,9.63
2019-03-27T13:47:25.240Z,9.59
2019-03-27T13:49:30.940Z,9.51
2019-03-27T13:51:40.875Z,9.43
2019-03-27T13:53:45.876Z,9.35
2019-03-27T13:55:51.669Z,9.34
2019-03-27T13:57:57.617Z,9.32
2019-03-27T14:00:04.587Z,8.91
2019-03-27T14:02:10.394Z,8.77
2019-03-27T14:04:16.075Z,8.75
2019-03-27T14:06:21.749Z,8.75
2019-03-27T14:08:27.522Z,8.76
2019-03-27T14:10:33.200Z,8.79
2019-03-27T14:12:38.946Z,8.82
2019-03-27T14:14:50.563Z,8.89
2019-03-27T14:16:53.021Z,8.93
2019-03-27T14:18:58.781Z,8.98
2019-03-27T14:21:04.679Z,8.97
2019-03-27T14:23:10.354Z,8.98
2019-03-27T14:25:16.525Z,9.04
2019-03-27T14:27:22.315Z,9.05
2019-03-27T14:29:28.001Z,8.95
2019-03-27T14:31:33.742Z,8.92
2019-03-27T14:33:39.452Z,8.91
2019-03-27T14:35:45.122Z,8.92
2019-03-27T14:37:51.796Z,8.96
2019-03-27T14:39:57.590Z,8.94
2019-03-27T14:42:03.297Z,8.90
2019-03-27T14:44:09.947Z,8.88
2019-03-27T14:46:15.655Z,8.87
2019-03-27T14:48:21.335Z,8.85
2019-03-27T14:50:27.076Z,8.81
2019-03-27T14:52:32.778Z,8.83
2019-03-27T14:54:38.456Z,8.84
2019-03-27T14:56:44.132Z,8.88
2019-03-27T14:58:49.934Z,8.89
2019-03-27T15:00:55.629Z,8.79
2019-03-27T15:03:01.298Z,8.77
2019-03-27T15:05:08.073Z,8.81
2019-03-27T15:07:13.931Z,8.82
2019-03-27T15:09:19.608Z,8.77
2019-03-27T15:11:25.343Z,8.74
2019-03-27T15:13:31.010Z,8.73
2019-03-27T15:15:36.686Z,8.72
2019-03-27T15:17:42.391Z,8.68
2019-03-27T15:19:48.058Z,8.68
2019-03-27T15:21:53.800Z,8.69
2019-03-27T15:23:59.527Z,8.70
2019-03-27T15:26:05.374Z,8.68
2019-03-27T15:28:11.135Z,8.66
2019-03-27T15:30:17.139Z,8.64
2019-03-27T15:32:22.819Z,8.60
2019-03-27T15:34:28.491Z,8.57
2019-03-27T15:36:34.271Z,8.61
2019-03-27T15:38:39.949Z,8.57
2019-03-27T15:40:47.401Z,8.64
2019-03-27T15:42:55.350Z,8.71
2019-03-27T15:45:01.081Z,8.77
2019-03-27T15:47:06.851Z,8.79
2019-03-27T15:49:12.553Z,8.85
2019-03-27T15:51:18.229Z,8.88
2019-03-27T15:53:24.124Z,8.90
2019-03-27T15:55:29.898Z,8.87
2019-03-27T15:57:35.566Z,8.90
2019-03-27T15:59:42.311Z,8.93
2019-03-27T16:01:48.094Z,8.90
2019-03-27T16:03:53.762Z,8.88
2019-03-27T16:05:59.493Z,8.87
2019-03-27T16:08:05.393Z,8.85
2019-03-27T16:10:11.358Z,8.81
2019-03-27T16:12:17.446Z,8.75
2019-03-27T16:14:23.218Z,8.67
2019-03-27T16:16:28.895Z,8.64
2019-03-27T16:18:34.593Z,8.65
2019-03-27T16:20:40.348Z,8.66
2019-03-27T16:22:50.976Z,8.62
2019-03-27T16:24:53.395Z,8.57
2019-03-27T16:27:04.552Z,8.56
2019-03-27T16:29:06.986Z,8.53
2019-03-27T16:31:12.653Z,8.50
2019-03-27T16:33:18.361Z,8.41
2019-03-27T16:35:24.279Z,8.31
2019-03-27T16:37:29.960Z,8.26
2019-03-27T16:39:35.743Z,8.18
2019-03-27T16:41:41.413Z,8.10
2019-03-27T16:43:47.099Z,8.07
2019-03-27T16:45:53.119Z,8.03
2019-03-27T16:47:58.795Z,7.99
2019-03-27T16:50:06.707Z,7.96
2019-03-27T16:52:13.611Z,7.95
2019-03-27T16:54:19.356Z,7.91
2019-03-27T16:56:25.027Z,7.87
2019-03-27T16:58:30.800Z,7.83
2019-03-27T17:00:36.471Z,7.84
2019-03-27T17:02:42.223Z,7.83
2019-03-27T17:04:48.002Z,7.83
2019-03-27T17:06:53.678Z,7.82
2019-03-27T17:08:59.289Z,7.80
2019-03-27T17:11:05.096Z,7.79
2019-03-27T17:13:10.771Z,7.78
2019-03-27T17:15:16.442Z,7.76
2019-03-27T17:17:22.153Z,7.74
2019-03-27T17:19:27.857Z,7.70
2019-03-27T17:21:33.614Z,7.67
2019-03-27T17:23:39.308Z,7.63
2019-03-27T17:25:45.057Z,7.61
2019-03-27T17:27:50.745Z,7.60
2019-03-27T17:29:56.528Z,7.58
2019-03-27T17:32:02.207Z,7.54
2019-03-27T17:34:07.958Z,7.53
2019-03-27T17:36:13.680Z,7.52
2019-03-27T17:38:19.432Z,7.52
2019-03-27T17:40:25.182Z,7.51
2019-03-27T17:42:31.106Z,7.51
2019-03-27T17:44:36.789Z,7.51
2019-03-27T17:46:42.531Z,7.48
2019-03-27T17:48:48.245Z,7.47
2019-03-27T17:50:54.077Z,7.46
2019-03-27T17:52:59.830Z,7.46
2019-03-27T17:55:08.250Z,7.46
2019-03-27T17:57:13.922Z,7.45
2019-03-27T17:59:19.956Z,7.44
2019-03-27T18:01:28.299Z,7.43
2019-03-27T18:03:34.053Z,7.41
2019-03-27T18:05:39.748Z,7.39
2019-03-27T18:07:45.470Z,7.38
2019-03-27T18:09:51.153Z,7.37
2019-03-27T18:11:59.117Z,7.35
2019-03-27T18:14:05.277Z,7.33
2019-03-27T18:16:11.112Z,7.31
2019-03-27T18:18:16.744Z,7.30
2019-03-27T18:20:22.409Z,7.28
2019-03-27T18:22:28.083Z,7.25
2019-03-27T18:24:33.747Z,7.22
2019-03-27T18:26:42.655Z,7.19
2019-03-27T18:28:48.287Z,7.17
2019-03-27T18:30:54.000Z,7.15
2019-03-27T18:32:59.673Z,7.14
2019-03-27T18:35:06.805Z,7.12
2019-03-27T18:37:12.449Z,7.09
2019-03-27T18:39:18.117Z,7.06
2019-03-27T18:41:23.840Z,7.03
2019-03-27T18:43:29.564Z,6.99
2019-03-27T18:45:35.249Z,6.97
2019-03-27T18:47:40.964Z,6.93
2019-03-27T18:49:46.692Z,6.88
2019-03-27T18:51:52.440Z,6.85
2019-03-27T18:53:59.857Z,6.83
2019-03-27T18:56:08.410Z,6.81
2019-03-27T18:58:14.077Z,6.80
2019-03-27T19:00:19.781Z,6.77
2019-03-27T19:02:27.057Z,6.75
2019-03-27T19:04:32.730Z,6.73
2019-03-27T19:06:38.383Z,6.74
2019-03-27T19:08:44.112Z,6.75
2019-03-27T19:10:49.786Z,6.75
2019-03-27T19:12:55.507Z,6.74
2019-03-27T19:15:01.158Z,6.73
2019-03-27T19:17:06.911Z,6.72
2019-03-27T19:19:12.556Z,6.70
2019-03-27T19:21:20.600Z,6.70
2019-03-27T19:23:26.279Z,6.70
2019-03-27T19:25:33.128Z,6.68
2019-03-27T19:27:38.943Z,6.71
2019-03-27T19:29:46.067Z,6.69
2019-03-27T19:31:53.233Z,6.69
2019-03-27T19:34:00.409Z,6.67
2019-03-27T19:36:06.386Z,6.65
2019-03-27T19:38:12.101Z,6.64
2019-03-27T19:40:18.850Z,6.63
2019-03-27T19:42:24.538Z,6.63
2019-03-27T19:44:30.257Z,6.61
2019-03-27T19:46:37.512Z,6.61
2019-03-27T19:48:43.305Z,6.62
2019-03-27T19:50:49.884Z,6.62
2019-03-27T19:52:57.235Z,6.60
2019-03-27T19:55:03.770Z,6.58
2019-03-27T19:57:09.725Z,6.60
2019-03-27T19:59:15.435Z,6.62
2019-03-27T20:01:21.110Z,6.62
2019-03-27T20:03:26.842Z,6.63
2019-03-27T20:05:32.483Z,6.64
2019-03-27T20:07:38.158Z,6.65
2019-03-27T20:09:43.822Z,6.67
2019-03-27T20:11:49.664Z,6.65
2019-03-27T20:13:55.898Z,6.64
2019-03-27T20:16:01.543Z,6.65
2019-03-27T20:18:07.183Z,6.68
2019-03-27T20:20:14.075Z,6.68
2019-03-27T20:22:19.727Z,6.70
2019-03-27T20:24:25.485Z,6.71
2019-03-27T20:26:31.143Z,6.71
2019-03-27T20:28:36.785Z,6.68
2019-03-27T20:30:42.446Z,6.66
2019-03-27T20:32:48.107Z,6.66
2019-03-27T20:34:53.749Z,6.65
2019-03-27T20:37:00.600Z,6.63
2019-03-27T20:39:08.547Z,6.65
2019-03-27T20:41:14.705Z,6.68
2019-03-27T20:43:20.362Z,6.67
2019-03-27T20:45:27.795Z,6.65
2019-03-27T20:47:33.444Z,6.66
2019-03-27T20:49:39.084Z,6.65
2019-03-27T20:51:44.755Z,6.63
2019-03-27T20:53:50.414Z,6.64
2019-03-27T20:55:56.061Z,6.63
2019-03-27T20:58:03.378Z,6.62
2019-03-27T21:00:09.803Z,6.62
2019-03-27T21:02:15.650Z,6.63
2019-03-27T21:04:22.431Z,6.60
2019-03-27T21:06:28.086Z,6.59
2019-03-27T21:08:34.732Z,6.60
2019-03-27T21:10:40.434Z,6.60
2019-03-27T21:12:46.083Z,6.61
2019-03-27T21:14:51.803Z,6.63
2019-03-27T21:16:57.488Z,6.65
2019-03-27T21:19:03.146Z,6.68
2019-03-27T21:21:08.788Z,6.72
2019-03-27T21:23:16.114Z,6.75
2019-03-27T21:25:21.752Z,6.79
2019-03-27T21:27:27.429Z,6.82
2019-03-27T21:29:34.226Z,6.86
2019-03-27T21:31:39.873Z,6.89
2019-03-27T21:33:45.524Z,6.93
2019-03-27T21:35:51.213Z,6.98
2019-03-27T21:37:58.069Z,7.02
2019-03-27T21:40:05.728Z,7.04
2019-03-27T21:42:11.449Z,7.08
2019-03-27T21:44:17.094Z,7.08
2019-03-27T21:46:22.741Z,7.08
2019-03-27T21:48:29.517Z,7.08
2019-03-27T21:50:35.160Z,7.05
2019-03-27T21:52:40.811Z,7.07
2019-03-27T21:54:46.481Z,7.05
2019-03-27T21:56:52.127Z,7.04
2019-03-27T21:58:58.037Z,7.02
2019-03-27T22:01:03.721Z,6.99
2019-03-27T22:03:09.471Z,6.97
2019-03-27T22:05:15.142Z,6.98
2019-03-27T22:07:20.824Z,6.97
2019-03-27T22:09:26.481Z,6.97
2019-03-27T22:11:32.121Z,6.95
2019-03-27T22:13:37.810Z,6.91
2019-03-27T22:15:43.645Z,6.89
2019-03-27T22:17:49.308Z,6.83
2019-03-27T22:19:54.978Z,6.77
2019-03-27T22:22:00.624Z,6.69
2019-03-27T22:24:06.273Z,6.65
2019-03-27T22:26:13.041Z,6.64
2019-03-27T22:28:18.708Z,6.58
2019-03-27T22:30:25.553Z,6.54
2019-03-27T22:32:31.297Z,6.49
2019-03-27T22:34:36.984Z,6.45
2019-03-27T22:36:42.624Z,6.42
2019-03-27T22:38:48.301Z,6.40
2019-03-27T22:40:53.953Z,6.38
2019-03-27T22:42:59.600Z,6.34
2019-03-27T22:45:06.083Z,6.31
2019-03-27T22:47:11.728Z,6.25
2019-03-27T22:49:17.385Z,6.22
2019-03-27T22:51:23.182Z,6.17
2019-03-27T22:53:28.795Z,6.15
2019-03-27T22:55:34.503Z,6.12
2019-03-27T22:57:40.186Z,6.10
2019-03-27T22:59:45.827Z,6.05
2019-03-27T23:01:51.540Z,6.04
2019-03-27T23:03:57.276Z,6.03
2019-03-27T23:06:02.990Z,6.03
2019-03-27T23:08:08.635Z,6.06
2019-03-27T23:10:14.313Z,6.06
2019-03-27T23:12:19.959Z,6.08
2019-03-27T23:14:25.609Z,6.06
2019-03-27T23:16:32.509Z,6.08
2019-03-27T23:18:38.230Z,6.08
2019-03-27T23:20:43.877Z,6.08
2019-03-27T23:22:49.552Z,6.05
2019-03-27T23:24:55.200Z,6.07
2019-03-27T23:27:00.847Z,6.09
2019-03-27T23:29:06.516Z,6.07
2019-03-27T23:31:12.160Z,6.10
2019-03-27T23:33:20.245Z,6.14
2019-03-27T23:35:25.193Z,6.16
2019-03-27T23:37:30.904Z,6.17
2019-03-27T23:39:36.558Z,6.21
2019-03-27T23:41:42.248Z,6.22
2019-03-27T23:43:47.887Z,6.24
2019-03-27T23:45:54.046Z,6.24
2019-03-27T23:47:59.859Z,6.24
2019-03-27T23:50:09.891Z,6.27
2019-03-27T23:52:15.536Z,6.25
2019-03-27T23:54:21.204Z,6.28
2019-03-27T23:56:26.860Z,6.32
2019-03-27T23:58:32.498Z,6.34
